createdAt,value
2019-05-28T00:01:22.746Z,99863.63
2019-05-28T00:03:55.587Z,99861.79
2019-05-28T00:06:27.748Z,99866.48
2019-05-28T00:09:00.431Z,99869.44
2019-05-28T00:11:32.547Z,99865.53
2019-05-28T00:14:07.121Z,99869.92
2019-05-28T00:16:41.338Z,99872.69
2019-05-28T00:19:14.117Z,99871.34
2019-05-28T00:21:48.584Z,99874.16
2019-05-28T00:24:20.601Z,99875.77
2019-05-28T00:26:53.509Z,99877.92
2019-05-28T00:29:25.471Z,99872.98
2019-05-28T00:31:59.488Z,99875.91
2019-05-28T00:34:32.660Z,99876.12
2019-05-28T00:37:05.071Z,99883.28
2019-05-28T00:39:37.548Z,99880.22
2019-05-28T00:42:10.997Z,99886.50
2019-05-28T00:44:43.207Z,99883.59
2019-05-28T00:47:15.843Z,99884.41
2019-05-28T00:49:49.727Z,99884.41
2019-05-28T00:52:21.506Z,99888.08
2019-05-28T00:54:53.475Z,99889.81
2019-05-28T00:57:27.679Z,99887.76
2019-05-28T01:00:00.982Z,99888.35
2019-05-28T01:02:33.763Z,99887.94
2019-05-28T01:05:08.008Z,99887.37
2019-05-28T01:07:39.841Z,99889.45
2019-05-28T01:10:12.597Z,99882.70
2019-05-28T01:12:44.285Z,99883.56
2019-05-28T01:15:17.272Z,99889.30
2019-05-28T01:17:50.054Z,99886.31
2019-05-28T01:20:22.518Z,99878.56
2019-05-28T01:22:54.787Z,99882.85
2019-05-28T01:25:28.172Z,99878.42
2019-05-28T01:28:01.529Z,99881.70
2019-05-28T01:30:33.455Z,99884.20
2019-05-28T01:33:05.504Z,99884.83
2019-05-28T01:35:38.596Z,99890.02
2019-05-28T01:38:12.078Z,99881.28
2019-05-28T01:40:44.263Z,99878.92
2019-05-28T01:43:17.059Z,99884.41
2019-05-28T01:45:49.616Z,99874.80
2019-05-28T01:48:22.297Z,99878.85
2019-05-28T01:50:57.845Z,99880.92
2019-05-28T01:53:30.523Z,99880.13
2019-05-28T01:56:02.997Z,99876.58
2019-05-28T01:58:35.370Z,99875.61
2019-05-28T02:01:12.787Z,99875.67
2019-05-28T02:03:41.859Z,99881.65
2019-05-28T02:06:14.436Z,99878.48
2019-05-28T02:08:46.498Z,99880.84
2019-05-28T02:11:19.211Z,99882.70
2019-05-28T02:13:51.962Z,99886.37
2019-05-28T02:16:24.479Z,99884.70
2019-05-28T02:18:56.335Z,99886.88
2019-05-28T02:21:29.074Z,99890.50
2019-05-28T02:24:01.141Z,99891.34
2019-05-28T02:26:34.026Z,99893.89
2019-05-28T02:29:08.137Z,99898.74
2019-05-28T02:31:41.230Z,99902.39
2019-05-28T02:34:14.831Z,99900.70
2019-05-28T02:36:48.427Z,99901.34
2019-05-28T02:39:20.510Z,99904.77
2019-05-28T02:41:52.977Z,99906.66
2019-05-28T02:44:25.567Z,99906.61
2019-05-28T02:46:58.427Z,99905.04
2019-05-28T02:49:30.698Z,99902.55
2019-05-28T02:52:04.279Z,99907.80
2019-05-28T02:54:36.571Z,99904.66
2019-05-28T02:57:10.488Z,99909.61
2019-05-28T02:59:42.344Z,99912.94
2019-05-28T03:02:15.888Z,99912.14
2019-05-28T03:04:49.215Z,99908.81
2019-05-28T03:07:21.601Z,99910.24
2019-05-28T03:09:56.575Z,99916.05
2019-05-28T03:12:28.089Z,99919.06
2019-05-28T03:15:00.992Z,99912.51
2019-05-28T03:17:35.288Z,99912.11
2019-05-28T03:20:07.972Z,99909.91
2019-05-28T03:22:42.520Z,99905.86
2019-05-28T03:25:14.253Z,99908.03
2019-05-28T03:27:46.414Z,99911.63
2019-05-28T03:30:18.280Z,99905.52
2019-05-28T03:32:50.275Z,99914.34
2019-05-28T03:35:22.721Z,99910.25
2019-05-28T03:37:55.821Z,99914.74
2019-05-28T03:40:45.537Z,99902.33
2019-05-28T03:43:18.370Z,99912.77
2019-05-28T03:45:50.436Z,99913.21
2019-05-28T03:48:22.399Z,99915.53
2019-05-28T03:50:54.115Z,99919.48
2019-05-28T03:53:26.646Z,99922.94
2019-05-28T03:55:59.107Z,99929.20
2019-05-28T03:58:31.883Z,99923.87
2019-05-28T04:01:04.153Z,99926.17
2019-05-28T04:03:36.641Z,99922.70
2019-05-28T04:06:08.388Z,99919.77
2019-05-28T04:08:40.239Z,99927.70
2019-05-28T04:11:13.033Z,99924.64
2019-05-28T04:13:46.214Z,99922.25
2019-05-28T04:16:19.507Z,99921.84
2019-05-28T04:18:52.296Z,99923.31
2019-05-28T04:21:24.460Z,99923.48
2019-05-28T04:23:59.066Z,99924.14
2019-05-28T04:26:31.674Z,99923.72
2019-05-28T04:29:04.856Z,99926.88
2019-05-28T04:31:37.590Z,99933.30
2019-05-28T04:34:10.215Z,99936.88
2019-05-28T04:36:42.890Z,99933.52
2019-05-28T04:39:17.821Z,99934.70
2019-05-28T04:41:51.119Z,99939.91
2019-05-28T04:44:24.105Z,99940.86
2019-05-28T04:46:57.204Z,99943.11
2019-05-28T04:49:30.180Z,99948.16
2019-05-28T04:52:03.471Z,99948.16
2019-05-28T04:54:35.954Z,99941.34
2019-05-28T04:57:10.941Z,99942.43
2019-05-28T04:59:43.045Z,99940.25
2019-05-28T05:02:15.519Z,99946.16
2019-05-28T05:04:49.027Z,99948.77
2019-05-28T05:07:21.400Z,99947.80
2019-05-28T05:09:54.173Z,99950.56
2019-05-28T05:12:26.344Z,99954.38
2019-05-28T05:14:58.425Z,99951.37
2019-05-28T05:17:31.087Z,99953.40
2019-05-28T05:20:05.095Z,99950.78
2019-05-28T05:22:38.200Z,99954.10
2019-05-28T05:25:11.486Z,99965.70
2019-05-28T05:27:45.324Z,99960.70
2019-05-28T05:30:18.083Z,99960.70
2019-05-28T05:32:50.762Z,99968.79
2019-05-28T05:35:23.327Z,99969.02
2019-05-28T05:37:55.799Z,99969.97
2019-05-28T05:40:28.491Z,99969.45
2019-05-28T05:43:03.628Z,99969.45
2019-05-28T05:45:35.680Z,99958.16
2019-05-28T05:48:08.670Z,99965.39
2019-05-28T05:50:45.093Z,99965.77
2019-05-28T05:53:16.379Z,99969.82
2019-05-28T05:55:48.651Z,99967.88
2019-05-28T05:58:21.843Z,99965.20
2019-05-28T06:00:54.273Z,99965.20
2019-05-28T06:03:39.747Z,99977.98
2019-05-28T06:06:01.628Z,99977.98
2019-05-28T06:08:36.952Z,99976.17
2019-05-28T06:11:07.489Z,99970.05
2019-05-28T06:13:39.820Z,99981.75
2019-05-28T06:16:12.000Z,99983.38
2019-05-28T06:18:45.662Z,99982.74
2019-05-28T06:21:19.134Z,99987.22
2019-05-28T06:24:04.941Z,99982.47
2019-05-28T06:26:38.355Z,99989.28
2019-05-28T06:29:14.660Z,99987.65
2019-05-28T06:31:46.784Z,99990.10
2019-05-28T06:34:18.968Z,99985.83
2019-05-28T06:36:51.071Z,99985.34
2019-05-28T06:39:24.419Z,99993.03
2019-05-28T06:41:56.491Z,99986.47
2019-05-28T06:44:29.189Z,99990.88
2019-05-28T06:47:01.218Z,99989.80
2019-05-28T06:49:33.424Z,99991.04
2019-05-28T06:52:05.471Z,99996.53
2019-05-28T06:54:37.476Z,99993.50
2019-05-28T06:57:22.479Z,99988.98
2019-05-28T06:59:43.297Z,99985.72
2019-05-28T07:02:15.311Z,99992.02
2019-05-28T07:04:47.476Z,99989.91
2019-05-28T07:07:19.514Z,99984.69
2019-05-28T07:09:52.004Z,99989.74
2019-05-28T07:12:23.471Z,99987.36
2019-05-28T07:14:55.984Z,99988.88
2019-05-28T07:17:28.051Z,99983.36
2019-05-28T07:19:59.642Z,99989.59
2019-05-28T07:22:31.110Z,99989.67
2019-05-28T07:25:03.745Z,99995.75
2019-05-28T07:27:36.097Z,99987.02
2019-05-28T07:30:08.818Z,99988.95
2019-05-28T07:32:40.291Z,99990.81
2019-05-28T07:35:12.738Z,99987.00
2019-05-28T07:37:44.828Z,99988.39
2019-05-28T07:40:30.386Z,99986.95
2019-05-28T07:42:50.399Z,99986.65
2019-05-28T07:45:21.887Z,99990.48
2019-05-28T07:47:55.097Z,99988.03
2019-05-28T07:50:26.598Z,99989.35
2019-05-28T07:52:58.030Z,99991.81
2019-05-28T07:55:29.720Z,99988.23
2019-05-28T07:58:01.061Z,99989.92
2019-05-28T08:00:40.510Z,99986.33
2019-05-28T08:03:12.215Z,99987.58
2019-05-28T08:05:43.761Z,99982.61
2019-05-28T08:08:17.687Z,99983.95
2019-05-28T08:10:49.069Z,99985.05
2019-05-28T08:13:21.076Z,99984.27
2019-05-28T08:15:52.556Z,99985.78
2019-05-28T08:18:24.109Z,99987.27
2019-05-28T08:20:56.061Z,99979.38
2019-05-28T08:23:27.915Z,99976.69
2019-05-28T08:26:01.808Z,99979.89
2019-05-28T08:28:33.509Z,99977.95
2019-05-28T08:31:15.565Z,99974.81
2019-05-28T08:33:38.019Z,99975.27
2019-05-28T08:36:10.475Z,99975.92
2019-05-28T08:38:42.311Z,99979.60
2019-05-28T08:41:14.166Z,99982.55
2019-05-28T08:43:46.289Z,99974.06
2019-05-28T08:46:20.408Z,99985.53
2019-05-28T08:48:52.055Z,99982.22
2019-05-28T08:51:24.649Z,99977.42
2019-05-28T08:53:57.085Z,99982.27
2019-05-28T08:56:29.291Z,99978.95
2019-05-28T08:59:01.765Z,99978.69
2019-05-28T09:01:38.439Z,99982.67
2019-05-28T09:04:12.553Z,99978.86
2019-05-28T09:06:45.438Z,99977.55
2019-05-28T09:09:17.159Z,99971.70
2019-05-28T09:11:51.091Z,99978.80
2019-05-28T09:14:23.051Z,99971.23
2019-05-28T09:16:55.245Z,99963.59
2019-05-28T09:19:27.547Z,99963.87
2019-05-28T09:21:58.999Z,99967.39
2019-05-28T09:24:31.072Z,99973.23
2019-05-28T09:27:03.050Z,99969.25
2019-05-28T09:29:34.369Z,99973.34
2019-05-28T09:32:07.815Z,99972.17
2019-05-28T09:34:39.335Z,99969.65
2019-05-28T09:37:10.900Z,99958.48
2019-05-28T09:39:45.081Z,99956.22
2019-05-28T09:42:19.735Z,99955.05
2019-05-28T09:44:51.797Z,99953.71
2019-05-28T09:47:24.226Z,99949.31
2019-05-28T09:49:56.400Z,99952.02
2019-05-28T09:52:28.482Z,99950.91
2019-05-28T09:54:59.902Z,99953.00
2019-05-28T09:57:44.426Z,99953.64
2019-05-28T10:00:08.299Z,99949.24
2019-05-28T10:02:39.793Z,99948.66
2019-05-28T10:05:11.630Z,99952.22
2019-05-28T10:07:43.240Z,99944.82
2019-05-28T10:10:14.809Z,99942.88
2019-05-28T10:12:47.086Z,99945.58
2019-05-28T10:15:18.678Z,99933.70
2019-05-28T10:17:50.026Z,99939.41
2019-05-28T10:20:21.988Z,99941.02
2019-05-28T10:22:53.685Z,99933.26
2019-05-28T10:25:25.305Z,99938.81
2019-05-28T10:28:01.292Z,99933.08
2019-05-28T10:30:30.342Z,99933.23
2019-05-28T10:33:02.489Z,99926.65
2019-05-28T10:35:36.185Z,99931.41
2019-05-28T10:38:14.508Z,99922.06
2019-05-28T10:40:41.411Z,99926.19
2019-05-28T10:43:13.376Z,99924.56
2019-05-28T10:45:45.260Z,99922.92
2019-05-28T10:48:17.055Z,99923.18
2019-05-28T10:50:48.330Z,99914.70
2019-05-28T10:53:21.345Z,99907.56
2019-05-28T10:55:52.761Z,99903.71
2019-05-28T10:58:24.346Z,99905.94
2019-05-28T11:00:59.740Z,99907.25
2019-05-28T11:03:31.179Z,99894.81
2019-05-28T11:06:02.799Z,99900.79
2019-05-28T11:08:34.305Z,99898.84
2019-05-28T11:11:06.393Z,99893.44
2019-05-28T11:13:52.690Z,99894.31
2019-05-28T11:16:16.908Z,99885.53
2019-05-28T11:18:50.181Z,99889.16
2019-05-28T11:21:26.281Z,99883.89
2019-05-28T11:23:57.892Z,99879.80
2019-05-28T11:26:31.900Z,99881.32
2019-05-28T11:29:03.467Z,99875.91
2019-05-28T11:31:34.917Z,99868.91
2019-05-28T11:34:07.285Z,99874.09
2019-05-28T11:36:38.648Z,99875.25
2019-05-28T11:39:14.029Z,99876.52
2019-05-28T11:41:46.033Z,99870.87
2019-05-28T11:44:18.263Z,99877.72
2019-05-28T11:46:50.735Z,99872.44
2019-05-28T11:49:23.022Z,99867.38
2019-05-28T11:51:54.466Z,99864.09
2019-05-28T11:54:26.111Z,99865.72
2019-05-28T11:56:57.618Z,99865.48
2019-05-28T11:59:30.141Z,99864.31
2019-05-28T12:02:05.226Z,99864.71
2019-05-28T12:04:36.612Z,99864.39
2019-05-28T12:07:22.933Z,99860.50
2019-05-28T12:09:44.678Z,99868.73
2019-05-28T12:12:19.011Z,99860.34
2019-05-28T12:14:50.615Z,99859.62
2019-05-28T12:17:40.703Z,99850.67
2019-05-28T12:19:56.941Z,99854.69
2019-05-28T12:22:34.368Z,99859.13
2019-05-28T12:25:10.364Z,99847.75
2019-05-28T12:27:41.905Z,99844.55
2019-05-28T12:30:18.693Z,99850.06
2019-05-28T12:32:53.077Z,99840.84
2019-05-28T12:35:29.617Z,99841.26
2019-05-28T12:38:02.993Z,99844.17
2019-05-28T12:40:47.868Z,99832.75
2019-05-28T12:43:11.003Z,99824.84
2019-05-28T12:45:42.632Z,99834.71
2019-05-28T12:48:17.511Z,99834.02
2019-05-28T12:50:49.543Z,99827.63
2019-05-28T12:53:22.830Z,99828.13
2019-05-28T12:55:59.666Z,99828.09
2019-05-28T12:58:42.612Z,99818.05
2019-05-28T13:01:06.560Z,99829.05
2019-05-28T13:03:40.743Z,99821.23
2019-05-28T13:06:12.558Z,99828.84
2019-05-28T13:08:49.745Z,99819.50
2019-05-28T13:11:21.605Z,99816.77
2019-05-28T13:13:59.226Z,99815.66
2019-05-28T13:16:34.861Z,99810.26
2019-05-28T13:19:07.109Z,99813.05
2019-05-28T13:21:39.434Z,99805.92
2019-05-28T13:24:11.868Z,99801.09
2019-05-28T13:26:44.244Z,99797.81
2019-05-28T13:29:16.443Z,99807.07
2019-05-28T13:31:49.613Z,99802.97
2019-05-28T13:34:23.191Z,99798.84
2019-05-28T13:36:59.142Z,99800.03
2019-05-28T13:39:31.553Z,99805.30
2019-05-28T13:42:03.974Z,99812.70
2019-05-28T13:44:35.548Z,99808.63
2019-05-28T13:47:29.965Z,99797.94
2019-05-28T13:49:45.477Z,99798.66
2019-05-28T13:52:17.051Z,99787.34
2019-05-28T13:54:51.384Z,99794.09
2019-05-28T13:57:24.353Z,99792.94
2019-05-28T13:59:58.542Z,99784.80
2019-05-28T14:02:30.551Z,99778.98
2019-05-28T14:05:02.093Z,99776.33
2019-05-28T14:07:34.414Z,99781.75
2019-05-28T14:10:12.388Z,99775.59
2019-05-28T14:12:44.236Z,99776.83
2019-05-28T14:15:17.849Z,99768.55
2019-05-28T14:17:49.944Z,99777.58
2019-05-28T14:20:22.251Z,99775.41
2019-05-28T14:22:57.350Z,99773.30
2019-05-28T14:25:29.851Z,99756.25
2019-05-28T14:28:01.726Z,99764.30
2019-05-28T14:30:37.620Z,99765.78
2019-05-28T14:33:10.848Z,99762.02
2019-05-28T14:35:43.723Z,99761.49
2019-05-28T14:38:15.803Z,99768.89
2019-05-28T14:40:47.672Z,99761.84
2019-05-28T14:43:21.945Z,99755.77
2019-05-28T14:45:55.014Z,99761.06
2019-05-28T14:48:26.904Z,99763.77
2019-05-28T14:51:00.169Z,99767.08
2019-05-28T14:53:31.702Z,99761.32
2019-05-28T14:56:06.332Z,99761.57
2019-05-28T14:58:38.845Z,99764.86
2019-05-28T15:01:12.591Z,99759.66
2019-05-28T15:03:47.446Z,99758.59
2019-05-28T15:06:19.221Z,99764.33
2019-05-28T15:08:51.487Z,99760.77
2019-05-28T15:11:23.551Z,99758.88
2019-05-28T15:13:55.609Z,99757.48
2019-05-28T15:16:32.246Z,99759.41
2019-05-28T15:19:06.158Z,99757.48
2019-05-28T15:21:37.538Z,99753.09
2019-05-28T15:24:10.010Z,99762.15
2019-05-28T15:26:41.809Z,99763.23
2019-05-28T15:29:13.454Z,99758.58
2019-05-28T15:31:45.791Z,99751.72
2019-05-28T15:34:18.429Z,99760.48
2019-05-28T15:36:50.442Z,99755.78
2019-05-28T15:39:38.329Z,99755.75
2019-05-28T15:41:55.597Z,99753.02
2019-05-28T15:44:27.593Z,99754.14
2019-05-28T15:46:59.415Z,99753.30
2019-05-28T15:49:31.795Z,99750.31
2019-05-28T15:52:07.809Z,99754.41
2019-05-28T15:54:38.591Z,99757.95
2019-05-28T15:57:10.441Z,99750.28
2019-05-28T15:59:44.549Z,99748.91
2019-05-28T16:02:16.897Z,99744.25
2019-05-28T16:04:50.018Z,99745.06
2019-05-28T16:07:21.838Z,99747.22
2019-05-28T16:09:56.434Z,99749.69
2019-05-28T16:12:29.893Z,99746.95
2019-05-28T16:15:01.901Z,99744.70
2019-05-28T16:17:33.723Z,99746.36
2019-05-28T16:20:09.459Z,99740.04
2019-05-28T16:22:41.044Z,99742.48
2019-05-28T16:25:13.514Z,99735.59
2019-05-28T16:27:46.707Z,99730.66
2019-05-28T16:30:18.817Z,99733.36
2019-05-28T16:32:52.679Z,99731.92
2019-05-28T16:35:25.514Z,99739.24
2019-05-28T16:37:59.260Z,99737.53
2019-05-28T16:40:31.155Z,99739.95
2019-05-28T16:43:03.184Z,99736.46
2019-05-28T16:45:35.079Z,99736.46
2019-05-28T16:48:08.531Z,99738.61
2019-05-28T16:50:40.286Z,99734.94
2019-05-28T16:53:11.845Z,99737.84
2019-05-28T16:55:44.214Z,99733.52
2019-05-28T16:58:16.172Z,99741.83
2019-05-28T17:00:49.262Z,99736.20
2019-05-28T17:03:24.192Z,99739.23
2019-05-28T17:05:56.687Z,99728.23
2019-05-28T17:08:29.655Z,99740.42
2019-05-28T17:11:01.623Z,99738.59
2019-05-28T17:13:33.797Z,99742.91
2019-05-28T17:16:07.384Z,99739.17
2019-05-28T17:18:39.762Z,99741.70
2019-05-28T17:21:14.517Z,99741.87
2019-05-28T17:23:46.592Z,99741.27
2019-05-28T17:26:18.621Z,99738.89
2019-05-28T17:28:50.476Z,99739.38
2019-05-28T17:31:23.317Z,99748.55
2019-05-28T17:33:54.811Z,99746.83
2019-05-28T17:36:26.828Z,99753.41
2019-05-28T17:39:01.200Z,99748.00
2019-05-28T17:41:32.953Z,99750.80
2019-05-28T17:44:05.121Z,99751.59
2019-05-28T17:46:36.677Z,99744.56
2019-05-28T17:49:08.529Z,99750.41
2019-05-28T17:51:40.402Z,99750.98
2019-05-28T17:54:12.156Z,99754.91
2019-05-28T17:56:43.910Z,99746.44
2019-05-28T17:59:15.878Z,99752.89
2019-05-28T18:01:47.649Z,99754.19
2019-05-28T18:04:19.554Z,99757.53
2019-05-28T18:06:51.813Z,99765.79
2019-05-28T18:09:23.620Z,99761.09
2019-05-28T18:11:55.374Z,99760.04
2019-05-28T18:14:27.135Z,99765.19
2019-05-28T18:16:59.813Z,99767.69
2019-05-28T18:19:33.210Z,99773.41
2019-05-28T18:22:06.095Z,99773.98
2019-05-28T18:24:38.161Z,99776.54
2019-05-28T18:27:10.219Z,99767.72
2019-05-28T18:29:41.988Z,99773.23
2019-05-28T18:32:16.505Z,99780.45
2019-05-28T18:34:49.249Z,99775.83
2019-05-28T18:37:21.143Z,99777.49
2019-05-28T18:39:52.703Z,99778.97
2019-05-28T18:42:24.569Z,99775.02
2019-05-28T18:44:57.650Z,99781.32
2019-05-28T18:47:30.837Z,99782.36
2019-05-28T18:50:03.734Z,99787.34
2019-05-28T18:52:35.522Z,99778.73
2019-05-28T18:55:08.612Z,99786.91
2019-05-28T18:57:42.378Z,99785.98
2019-05-28T19:00:15.980Z,99783.80
2019-05-28T19:02:47.944Z,99782.87
2019-05-28T19:05:19.910Z,99785.45
2019-05-28T19:07:51.714Z,99784.80
2019-05-28T19:10:23.525Z,99787.28
2019-05-28T19:12:58.145Z,99782.38
2019-05-28T19:15:28.464Z,99775.59
2019-05-28T19:18:02.225Z,99775.70
2019-05-28T19:20:34.344Z,99775.66
2019-05-28T19:23:11.727Z,99777.00
2019-05-28T19:25:44.073Z,99774.02
2019-05-28T19:28:15.753Z,99767.38
2019-05-28T19:30:50.626Z,99768.03
2019-05-28T19:33:22.347Z,99764.86
2019-05-28T19:35:54.558Z,99764.20
2019-05-28T19:38:42.078Z,99763.55
2019-05-28T19:41:02.020Z,99763.65
2019-05-28T19:43:33.726Z,99768.41
2019-05-28T19:46:05.333Z,99766.07
2019-05-28T19:48:40.159Z,99766.64
2019-05-28T19:51:12.436Z,99761.32
2019-05-28T19:53:49.350Z,99760.11
2019-05-28T19:56:22.099Z,99767.14
2019-05-28T19:58:57.704Z,99763.48
2019-05-28T20:01:31.785Z,99773.45
2019-05-28T20:04:07.205Z,99770.80
2019-05-28T20:06:42.545Z,99768.81
2019-05-28T20:09:16.974Z,99767.75
2019-05-28T20:11:52.012Z,99764.03
2019-05-28T20:14:25.329Z,99768.53
2019-05-28T20:16:57.781Z,99767.66
2019-05-28T20:19:30.233Z,99770.22
2019-05-28T20:22:06.093Z,99767.06
2019-05-28T20:24:40.113Z,99771.58
2019-05-28T20:27:13.396Z,99772.81
2019-05-28T20:29:45.611Z,99774.17
2019-05-28T20:32:19.087Z,99776.50
2019-05-28T20:34:52.160Z,99782.16
2019-05-28T20:37:24.760Z,99780.80
2019-05-28T20:39:56.717Z,99784.20
2019-05-28T20:42:28.338Z,99780.27
2019-05-28T20:45:02.468Z,99779.91
2019-05-28T20:47:35.137Z,99781.84
2019-05-28T20:50:09.548Z,99780.44
2019-05-28T20:52:41.623Z,99775.02
2019-05-28T20:55:15.207Z,99778.16
2019-05-28T20:57:47.100Z,99776.67
2019-05-28T21:00:19.584Z,99771.64
2019-05-28T21:02:51.739Z,99770.33
2019-05-28T21:05:24.556Z,99769.66
2019-05-28T21:07:58.292Z,99771.84
2019-05-28T21:10:31.089Z,99761.50
2019-05-28T21:13:04.602Z,99766.38
2019-05-28T21:15:38.194Z,99764.03
2019-05-28T21:18:09.951Z,99769.21
2019-05-28T21:20:41.604Z,99766.38
2019-05-28T21:23:17.615Z,99771.24
2019-05-28T21:25:48.495Z,99764.19
2019-05-28T21:28:20.259Z,99767.02
2019-05-28T21:30:52.500Z,99768.53
2019-05-28T21:33:26.034Z,99770.72
2019-05-28T21:35:59.551Z,99766.89
2019-05-28T21:38:30.972Z,99765.36
2019-05-28T21:41:02.727Z,99763.84
2019-05-28T21:43:35.836Z,99766.23
2019-05-28T21:46:07.573Z,99769.67
2019-05-28T21:48:40.254Z,99771.91
2019-05-28T21:51:12.728Z,99771.56
2019-05-28T21:53:45.204Z,99772.27
2019-05-28T21:56:17.782Z,99763.30
2019-05-28T21:58:49.848Z,99769.58
2019-05-28T22:01:26.112Z,99774.06
2019-05-28T22:03:59.387Z,99766.58
2019-05-28T22:06:31.060Z,99763.95
2019-05-28T22:09:03.908Z,99777.09
2019-05-28T22:11:35.585Z,99771.14
2019-05-28T22:14:08.567Z,99767.59
2019-05-28T22:16:44.336Z,99763.50
2019-05-28T22:19:16.408Z,99768.51
2019-05-28T22:21:49.182Z,99774.60
2019-05-28T22:24:21.457Z,99764.23
2019-05-28T22:26:53.930Z,99762.45
2019-05-28T22:29:25.787Z,99762.09
2019-05-28T22:31:58.708Z,99765.45
2019-05-28T22:34:30.330Z,99764.97
2019-05-28T22:37:02.571Z,99758.92
2019-05-28T22:39:34.253Z,99766.28
2019-05-28T22:42:06.016Z,99761.47
2019-05-28T22:44:38.379Z,99761.25
2019-05-28T22:47:10.867Z,99755.30
2019-05-28T22:49:43.852Z,99766.66
2019-05-28T22:52:16.629Z,99763.98
2019-05-28T22:54:49.411Z,99762.48
2019-05-28T22:57:21.941Z,99758.80
2019-05-28T22:59:54.662Z,99759.74
2019-05-28T23:02:27.446Z,99761.27
2019-05-28T23:05:01.032Z,99757.89
2019-05-28T23:07:32.599Z,99760.22
2019-05-28T23:10:07.868Z,99752.62
2019-05-28T23:12:40.295Z,99756.81
2019-05-28T23:15:12.459Z,99751.73
2019-05-28T23:17:44.074Z,99752.44
2019-05-28T23:20:17.325Z,99749.69
2019-05-28T23:22:50.212Z,99745.23
2019-05-28T23:25:22.784Z,99743.27
2019-05-28T23:27:54.873Z,99742.40
2019-05-28T23:30:26.723Z,99744.66
2019-05-28T23:32:58.504Z,99745.59
2019-05-28T23:35:30.331Z,99747.58
2019-05-28T23:38:02.928Z,99747.88
2019-05-28T23:40:34.869Z,99744.45
2019-05-28T23:43:09.698Z,99745.30
2019-05-28T23:45:41.559Z,99738.66
2019-05-28T23:48:18.291Z,99746.41
2019-05-28T23:50:48.051Z,99737.88
2019-05-28T23:53:20.109Z,99738.45
2019-05-28T23:55:52.072Z,99747.27
2019-05-28T23:58:24.037Z,99741.28
